BAW4563 LPPR-EGKK
Flight info
| Callsign | BAW4563 |
|---|---|
| Flight time | N/A |
| Altitude | 24000 |
| Route | TURON P600 ASDEB/N0469F380 DCT KORUL DCT FEJAC DCT JSY/N0447F340 DCT REVTU/N0411F280 UP88 ODREP/N0389F240 P88 VASUX |
| Aircraft | A333/H-SDE3GHIJ2J3J5M1RVWXY/LB2D1 |
Departure
| Time | 2026-05-04 16:01 |
|---|---|
| Airport | Francisco de Sá Carneiro Airport (LPPR) |
Arrival
| Time | N/A |
|---|---|
| Airport | London Gatwick Airport (EGKK) |
| Time | Latitude | Longitude | Altitude | Speed | Heading |
|---|---|---|---|---|---|
| 2026-05-04 15:32 | 41.23571 | -8.67497 | 268 ft | 0 kts | 260° |
| 2026-05-04 15:53 | 41.23573 | -8.67482 | 267 ft | 3 kts | 260° |
| 2026-05-04 15:53 | 41.23576 | -8.67457 | 267 ft | 3 kts | 247° |
| 2026-05-04 15:54 | 41.23585 | -8.67438 | 266 ft | 3 kts | 207° |
| 2026-05-04 15:54 | 41.23602 | -8.67431 | 265 ft | 3 kts | 166° |
| 2026-05-04 15:54 | 41.23610 | -8.67433 | 265 ft | 0 kts | 146° |
| 2026-05-04 15:55 | 41.23568 | -8.67409 | 266 ft | 14 kts | 162° |
| 2026-05-04 15:56 | 41.23441 | -8.67375 | 266 ft | 20 kts | 169° |
| 2026-05-04 15:56 | 41.23338 | -8.67428 | 269 ft | 14 kts | 245° |
| 2026-05-04 15:56 | 41.23324 | -8.67493 | 272 ft | 0 kts | 258° |
| 2026-05-04 15:57 | 41.23322 | -8.67507 | 272 ft | 0 kts | 258° |
| 2026-05-04 15:58 | 41.23319 | -8.67526 | 274 ft | 2 kts | 258° |
| 2026-05-04 15:58 | 41.23317 | -8.67541 | 274 ft | 5 kts | 258° |
| 2026-05-04 15:59 | 41.23303 | -8.67632 | 279 ft | 14 kts | 261° |
| 2026-05-04 15:59 | 41.23363 | -8.67751 | 279 ft | 16 kts | 344° |
| 2026-05-04 15:59 | 41.23373 | -8.67754 | 279 ft | 0 kts | 347° |
| 2026-05-04 16:00 | 41.23407 | -8.67763 | 277 ft | 21 kts | 348° |
| 2026-05-04 16:01 | 41.23826 | -8.67872 | 259 ft | 102 kts | 349° |
| 2026-05-04 16:01 | 41.24764 | -8.68105 | 386 ft | 162 kts | 347° |
| 2026-05-04 16:01 | 41.25955 | -8.68330 | 1190 ft | 184 kts | 348° |
| 2026-05-04 16:01 | 41.27292 | -8.68662 | 2181 ft | 205 kts | 345° |
| 2026-05-04 16:02 | 41.28715 | -8.69120 | 3214 ft | 215 kts | 344° |
| 2026-05-04 16:02 | 41.30176 | -8.69654 | 4271 ft | 220 kts | 340° |
| 2026-05-04 16:02 | 41.33083 | -8.70574 | 6279 ft | 205 kts | 347° |
| 2026-05-04 16:03 | 41.34491 | -8.70791 | 7120 ft | 204 kts | 353° |
| 2026-05-04 16:03 | 41.35938 | -8.70808 | 7887 ft | 211 kts | 358° |
| 2026-05-04 16:03 | 41.37407 | -8.70793 | 8510 ft | 220 kts | 354° |
| 2026-05-04 16:03 | 41.38977 | -8.70934 | 9105 ft | 232 kts | 349° |
| 2026-05-04 16:04 | 41.40607 | -8.71224 | 9770 ft | 240 kts | 346° |
| 2026-05-04 16:04 | 41.43937 | -8.72214 | 11047 ft | 251 kts | 346° |
| 2026-05-04 16:04 | 41.45695 | -8.72178 | 11838 ft | 257 kts | 10° |
| 2026-05-04 16:05 | 41.47397 | -8.71533 | 12751 ft | 250 kts | 10° |
| 2026-05-04 16:05 | 41.49068 | -8.71009 | 13639 ft | 243 kts | 6° |
| 2026-05-04 16:05 | 41.52322 | -8.70494 | 15160 ft | 228 kts | 354° |
| 2026-05-04 16:06 | 41.53895 | -8.70346 | 15806 ft | 229 kts | 2° |
| 2026-05-04 16:06 | 41.57983 | -8.68609 | 17483 ft | 228 kts | 9° |
| 2026-05-04 16:07 | 41.59981 | -8.67901 | 18303 ft | 221 kts | 3° |
| 2026-05-04 16:07 | 41.63365 | -8.67240 | 19307 ft | 221 kts | 6° |
| 2026-05-04 16:08 | 41.63686 | -8.67122 | 19322 ft | 227 kts | 8° |
| 2026-05-04 16:08 | 41.68494 | -8.64961 | 20147 ft | 255 kts | 8° |
| 2026-05-04 16:09 | 41.71959 | -8.63368 | 20809 ft | 271 kts | 14° |
| 2026-05-04 16:09 | 41.75529 | -8.61648 | 21627 ft | 276 kts | 9° |
| 2026-05-04 16:10 | 41.79247 | -8.60237 | 22536 ft | 279 kts | 4° |
| 2026-05-04 16:11 | 41.84796 | -8.59769 | 23804 ft | 248 kts | 315° |
| 2026-05-04 16:11 | 41.85786 | -8.61554 | 23804 ft | 247 kts | 281° |
| 2026-05-04 16:12 | 41.84774 | -8.69826 | 21071 ft | 374 kts | 258° |
| 2026-05-04 16:12 | 41.82873 | -8.79571 | 20280 ft | 318 kts | 257° |
| 2026-05-04 16:13 | 41.81782 | -8.84990 | 19465 ft | 292 kts | 257° |
| 2026-05-04 16:13 | 41.80771 | -8.90367 | 17509 ft | 304 kts | 258° |
| 2026-05-04 16:14 | 41.79612 | -8.95719 | 16212 ft | 296 kts | 238° |
| 2026-05-04 16:14 | 41.75963 | -8.97668 | 15366 ft | 299 kts | 176° |
| 2026-05-04 16:15 | 41.69955 | -8.96139 | 13889 ft | 287 kts | 175° |
| 2026-05-04 16:16 | 41.66078 | -8.95416 | 12813 ft | 279 kts | 177° |
| 2026-05-04 16:16 | 41.60460 | -8.93985 | 11350 ft | 269 kts | 173° |
| 2026-05-04 16:17 | 41.56817 | -8.93133 | 10406 ft | 262 kts | 174° |
| 2026-05-04 16:18 | 41.51564 | -8.91622 | 9022 ft | 254 kts | 169° |
| 2026-05-04 16:18 | 41.49863 | -8.91019 | 8553 ft | 252 kts | 167° |
| 2026-05-04 16:19 | 41.44895 | -8.88962 | 7202 ft | 247 kts | 163° |
| 2026-05-04 16:19 | 41.41693 | -8.87384 | 6348 ft | 244 kts | 161° |
| 2026-05-04 16:20 | 41.37271 | -8.85181 | 5852 ft | 203 kts | 168° |
| 2026-05-04 16:20 | 41.34682 | -8.84207 | 5345 ft | 194 kts | 166° |
| 2026-05-04 16:21 | 41.30458 | -8.82823 | 3888 ft | 214 kts | 170° |
| 2026-05-04 16:22 | 41.27794 | -8.81962 | 3923 ft | 169 kts | 169° |
| 2026-05-04 16:22 | 41.24206 | -8.81002 | 3914 ft | 195 kts | 172° |
| 2026-05-04 16:23 | 41.20611 | -8.79478 | 4035 ft | 181 kts | 162° |
| 2026-05-04 16:24 | 41.15899 | -8.76975 | 3875 ft | 177 kts | 160° |
| 2026-05-04 16:25 | 41.13697 | -8.75744 | 3861 ft | 169 kts | 162° |
| 2026-05-04 16:26 | 41.09215 | -8.73464 | 3360 ft | 201 kts | 166° |
| 2026-05-04 16:26 | 41.04725 | -8.71355 | 2670 ft | 253 kts | 134° |
| 2026-05-04 16:27 | 41.04315 | -8.66846 | 2211 ft | 271 kts | 60° |
| 2026-05-04 16:28 | 41.08253 | -8.62093 | 1879 ft | 227 kts | 352° |
| 2026-05-04 16:28 | 41.12740 | -8.63541 | 1287 ft | 205 kts | 342° |
| 2026-05-04 16:29 | 41.17539 | -8.65142 | 685 ft | 158 kts | 337° |
| 2026-05-04 16:30 | 41.20251 | -8.66781 | 683 ft | 135 kts | 340° |
| 2026-05-04 16:31 | 41.22060 | -8.67392 | 541 ft | 141 kts | 345° |
| 2026-05-04 16:31 | 41.24651 | -8.68082 | 244 ft | 61 kts | 349° |
| 2026-05-04 16:32 | 41.25261 | -8.68105 | 225 ft | 0 kts | 34° |
| 2026-05-04 16:33 | 41.25282 | -8.68052 | 224 ft | 5 kts | 100° |
| 2026-05-04 16:34 | 41.25233 | -8.68011 | 220 ft | 0 kts | 162° |
| 2026-05-04 16:34 | 41.25226 | -8.68008 | 225 ft | 7 kts | 164° |
| 2026-05-04 16:35 | 41.24926 | -8.67925 | 232 ft | 15 kts | 167° |
| 2026-05-04 16:35 | 41.24703 | -8.67812 | 240 ft | 11 kts | 168° |
| 2026-05-04 16:36 | 41.24599 | -8.67784 | 242 ft | 19 kts | 168° |
| 2026-05-04 16:36 | 41.24260 | -8.67634 | 249 ft | 31 kts | 133° |
| 2026-05-04 16:37 | 41.23922 | -8.67501 | 260 ft | 1 kts | 169° |
| 2026-05-04 16:37 | 41.23899 | -8.67498 | 260 ft | 5 kts | 179° |
| 2026-05-04 16:37 | 41.23856 | -8.67572 | 260 ft | 0 kts | 253° |